Time;durP1;ratioP1;P1;durP2;ratioP2;P2;SDS_P1;SDS_P2;PMS_P1;PMS_P2;Temp;Humidity;BMP_temperature;BMP_pressure;BME280_temperature;BME280_humidity;BME280_pressure;Samples;Min_cycle;Max_cycle;Signal;HPM_P1;HPM_P2
2022/09/30 00:02:19;;;;;;;10.40;7.63;;;;;;;;;;5019681;28;20039;-77
2022/09/30 00:04:44;;;;;;;12.15;8.02;;;;;;;;;;5019533;28;20376;-77
2022/09/30 00:07:09;;;;;;;10.52;7.45;;;;;;;;;;5019556;28;20037;-78
2022/09/30 00:09:35;;;;;;;10.05;6.97;;;;;;;;;;5007775;28;20107;-78
2022/09/30 00:12:01;;;;;;;9.93;6.93;;;;;;;;;;5016154;28;20045;-77
2022/09/30 00:14:26;;;;;;;11.70;7.55;;;;;;;;;;4983529;28;20025;-77
2022/09/30 00:16:51;;;;;;;11.82;7.18;;;;;;;;;;5016110;28;20112;-78
2022/09/30 00:19:17;;;;;;;12.18;7.22;;;;;;;;;;4983138;28;20397;-78
2022/09/30 00:21:42;;;;;;;10.85;7.13;;;;;;;;;;5016255;28;20387;-78
2022/09/30 00:24:08;;;;;;;10.45;7.13;;;;;;;;;;4983439;28;20038;-78
2022/09/30 00:26:33;;;;;;;10.45;6.28;;;;;;;;;;5015963;28;20088;-77
2022/09/30 00:28:59;;;;;;;9.77;6.40;;;;;;;;;;4983688;28;20104;-78
2022/09/30 00:31:26;;;;;;;9.50;6.38;;;;;;;;;;5015907;28;20076;-78
2022/09/30 00:34:07;;;;;;;9.75;6.72;;;;;;;;;;5015505;28;20026;-77
2022/09/30 00:36:45;;;;;;;9.55;6.80;;;;;;;;;;4987143;28;20041;-77
2022/09/30 00:39:15;;;;;;;10.38;6.28;;;;;;;;;;4964266;28;20030;-78
2022/09/30 00:41:41;;;;;;;9.85;6.85;;;;;;;;;;4980235;28;20052;-78
2022/09/30 00:44:44;;;;;;;8.48;5.60;;;;;;;;;;4962928;28;20488;-78
2022/09/30 00:47:35;;;;;;;8.55;6.22;;;;;;;;;;5013188;28;20038;-77
2022/09/30 00:50:16;;;;;;;10.90;6.50;;;;;;;;;;4999556;28;20034;-78
2022/09/30 00:52:43;;;;;;;8.07;5.97;;;;;;;;;;5001345;28;20136;-78
2022/09/30 00:55:12;;;;;;;8.93;6.18;;;;;;;;;;4990799;28;20431;-77
2022/09/30 00:57:37;;;;;;;9.30;5.60;;;;;;;;;;5002958;28;20055;-78
2022/09/30 01:00:03;;;;;;;7.57;5.45;;;;;;;;;;5018679;28;20033;-78
2022/09/30 01:02:29;;;;;;;8.88;5.53;;;;;;;;;;5016565;28;20873;-78
2022/09/30 01:04:55;;;;;;;7.00;5.13;;;;;;;;;;4999156;28;20076;-78
2022/09/30 01:07:20;;;;;;;10.38;6.22;;;;;;;;;;4999290;28;20029;-78
2022/09/30 01:09:45;;;;;;;9.20;5.70;;;;;;;;;;4982399;28;20037;-78
2022/09/30 01:12:13;;;;;;;9.77;6.53;;;;;;;;;;4998598;28;20412;-78
2022/09/30 01:14:38;;;;;;;8.70;5.70;;;;;;;;;;4998740;28;20088;-78
2022/09/30 01:17:19;;;;;;;9.55;5.65;;;;;;;;;;4998560;28;20443;-78
2022/09/30 01:19:56;;;;;;;8.60;5.35;;;;;;;;;;5014798;28;20029;-78
2022/09/30 01:22:43;;;;;;;7.10;4.80;;;;;;;;;;5032662;28;20037;-77
2022/09/30 01:25:08;;;;;;;8.82;5.53;;;;;;;;;;5015168;28;20383;-78
2022/09/30 01:27:49;;;;;;;9.38;5.47;;;;;;;;;;5032494;28;20044;-78
2022/09/30 01:30:39;;;;;;;8.65;5.05;;;;;;;;;;5032321;28;20488;-77
2022/09/30 01:33:42;;;;;;;7.38;5.53;;;;;;;;;;5001052;28;20104;-77
2022/09/30 01:36:34;;;;;;;7.93;5.45;;;;;;;;;;5032599;28;20032;-77
2022/09/30 01:39:18;;;;;;;8.02;4.72;;;;;;;;;;5000322;28;20037;-78
2022/09/30 01:41:57;;;;;;;7.57;4.88;;;;;;;;;;5014431;28;20113;-77
2022/09/30 01:44:29;;;;;;;7.88;4.72;;;;;;;;;;5015990;28;20052;-78
2022/09/30 01:46:57;;;;;;;7.95;5.00;;;;;;;;;;5014420;28;20063;-77
2022/09/30 01:49:28;;;;;;;8.65;4.78;;;;;;;;;;4998231;28;20040;-78
2022/09/30 01:51:57;;;;;;;7.90;5.60;;;;;;;;;;5014401;28;20488;-78
2022/09/30 01:54:29;;;;;;;7.13;4.80;;;;;;;;;;5016004;28;20065;-77
2022/09/30 01:57:01;;;;;;;7.45;4.70;;;;;;;;;;5047018;28;20109;-77
2022/09/30 01:59:41;;;;;;;6.68;4.50;;;;;;;;;;4982242;28;20492;-78
2022/09/30 02:02:17;;;;;;;7.78;5.03;;;;;;;;;;5014273;28;20041;-77
2022/09/30 02:04:46;;;;;;;6.65;4.70;;;;;;;;;;4998761;28;20030;-78
2022/09/30 02:07:16;;;;;;;8.48;4.45;;;;;;;;;;4982001;28;20033;-78
2022/09/30 02:09:57;;;;;;;7.28;4.20;;;;;;;;;;4982066;28;20487;-77
2022/09/30 02:12:24;;;;;;;7.03;4.78;;;;;;;;;;4981978;28;20082;-77
2022/09/30 02:14:52;;;;;;;8.35;4.85;;;;;;;;;;4981183;28;20065;-77
2022/09/30 02:17:57;;;;;;;6.50;4.45;;;;;;;;;;4965866;28;20033;-78
2022/09/30 02:20:27;;;;;;;6.35;4.35;;;;;;;;;;4977550;28;20033;-77
2022/09/30 02:23:01;;;;;;;7.07;4.43;;;;;;;;;;4981288;28;20037;-78
2022/09/30 02:25:29;;;;;;;6.55;4.10;;;;;;;;;;5010744;28;20040;-77
2022/09/30 02:27:58;;;;;;;6.43;4.28;;;;;;;;;;5001060;28;20041;-78
2022/09/30 02:30:23;;;;;;;6.43;4.13;;;;;;;;;;5017375;28;20025;-78
2022/09/30 02:32:52;;;;;;;7.80;4.45;;;;;;;;;;5017245;28;20036;-78
2022/09/30 02:35:22;;;;;;;7.75;4.20;;;;;;;;;;5033544;28;20037;-78
2022/09/30 02:37:50;;;;;;;5.28;3.72;;;;;;;;;;5022178;28;20496;-78
2022/09/30 02:40:26;;;;;;;7.45;4.22;;;;;;;;;;4978218;28;20588;-77
2022/09/30 02:42:52;;;;;;;7.50;3.97;;;;;;;;;;5010112;28;20391;-78
2022/09/30 02:45:20;;;;;;;7.20;4.38;;;;;;;;;;5011989;28;20042;-78
2022/09/30 02:48:09;;;;;;;5.07;3.72;;;;;;;;;;4997869;28;20037;-78
2022/09/30 02:51:14;;;;;;;6.63;4.43;;;;;;;;;;5013397;28;20454;-77
2022/09/30 02:53:44;;;;;;;6.07;3.42;;;;;;;;;;4961415;28;20041;-78
2022/09/30 02:56:27;;;;;;;4.93;3.13;;;;;;;;;;4993926;28;20029;-77
2022/09/30 02:58:55;;;;;;;5.50;3.83;;;;;;;;;;5017773;28;20044;-78
2022/09/30 03:01:20;;;;;;;7.50;3.65;;;;;;;;;;4984823;28;20039;-78
2022/09/30 03:03:53;;;;;;;5.70;3.60;;;;;;;;;;5016962;28;20037;-77
2022/09/30 03:06:18;;;;;;;;;;;;;;;;;;5033656;28;20383;-78
2022/09/30 03:08:43;;;;;;;4.13;2.90;;;;;;;;;;5020128;28;19915;-78
2022/09/30 03:11:16;;;;;;;5.90;3.60;;;;;;;;;;5020867;28;20021;-78
2022/09/30 03:14:23;;;;;;;5.68;3.40;;;;;;;;;;5020296;28;20039;-78
2022/09/30 03:17:16;;;;;;;5.38;2.92;;;;;;;;;;5036180;28;20048;-78
2022/09/30 03:20:01;;;;;;;6.07;3.35;;;;;;;;;;5039804;28;20040;-78
2022/09/30 03:22:45;;;;;;;6.05;3.70;;;;;;;;;;5037162;28;20060;-78
2022/09/30 03:25:42;;;;;;;4.93;3.33;;;;;;;;;;5020592;28;20029;-78
2022/09/30 03:28:27;;;;;;;5.68;3.55;;;;;;;;;;5019937;28;20383;-78
2022/09/30 03:30:53;;;;;;;5.43;3.63;;;;;;;;;;5036906;28;20500;-78
2022/09/30 03:33:38;;;;;;;4.35;2.72;;;;;;;;;;5054571;28;20162;-78
2022/09/30 03:36:15;;;;;;;4.57;3.10;;;;;;;;;;5022078;28;20108;-78
2022/09/30 03:38:49;;;;;;;5.78;2.95;;;;;;;;;;5038470;28;20037;-78
2022/09/30 03:41:20;;;;;;;5.15;3.25;;;;;;;;;;5016386;28;20124;-78
2022/09/30 03:43:54;;;;;;;5.25;2.83;;;;;;;;;;5016537;28;20088;-78
2022/09/30 03:46:46;;;;;;;5.63;3.00;;;;;;;;;;4990559;28;20037;-77
2022/09/30 03:49:14;;;;;;;4.97;3.13;;;;;;;;;;5002920;28;20080;-78
2022/09/30 03:51:40;;;;;;;5.68;3.28;;;;;;;;;;5000674;28;20041;-78
2022/09/30 03:54:07;;;;;;;4.63;3.15;;;;;;;;;;5000245;28;20045;-77
2022/09/30 03:56:32;;;;;;;5.50;3.38;;;;;;;;;;5003019;28;20088;-78
2022/09/30 03:58:58;;;;;;;4.32;2.80;;;;;;;;;;5019773;28;20379;-78
2022/09/30 04:01:23;;;;;;;5.03;2.72;;;;;;;;;;5003621;28;20060;-78
2022/09/30 04:03:52;;;;;;;4.32;2.92;;;;;;;;;;5019439;28;20032;-78
2022/09/30 04:06:19;;;;;;;4.45;2.95;;;;;;;;;;5003975;28;20029;-78
2022/09/30 04:08:44;;;;;;;5.32;3.28;;;;;;;;;;5019642;28;20041;-77
2022/09/30 04:11:10;;;;;;;5.00;2.60;;;;;;;;;;5019293;28;20033;-77
2022/09/30 04:13:36;;;;;;;3.85;2.33;;;;;;;;;;5019308;28;20411;-78
2022/09/30 04:16:02;;;;;;;3.92;2.58;;;;;;;;;;5003385;28;20037;-78
2022/09/30 04:18:29;;;;;;;4.63;2.60;;;;;;;;;;5002946;28;20383;-78
2022/09/30 04:20:55;;;;;;;4.28;2.70;;;;;;;;;;5036077;28;20025;-77
2022/09/30 04:23:20;;;;;;;4.22;2.35;;;;;;;;;;5003335;28;20391;-78
2022/09/30 04:25:51;;;;;;;5.32;2.65;;;;;;;;;;5018869;28;20041;-78
2022/09/30 04:28:17;;;;;;;3.85;2.20;;;;;;;;;;5003475;28;20032;-78
2022/09/30 04:30:42;;;;;;;4.47;2.67;;;;;;;;;;5018997;28;20025;-77
2022/09/30 04:33:08;;;;;;;4.10;2.28;;;;;;;;;;5002789;28;20398;-78
2022/09/30 04:35:35;;;;;;;3.88;2.17;;;;;;;;;;5019221;28;20479;-77
2022/09/30 04:38:05;;;;;;;4.45;2.53;;;;;;;;;;5021766;28;20084;-78
2022/09/30 04:40:31;;;;;;;4.55;2.83;;;;;;;;;;5005386;28;20041;-78
2022/09/30 04:42:57;;;;;;;3.75;2.05;;;;;;;;;;4998898;28;20099;-78
2022/09/30 04:45:23;;;;;;;4.13;2.33;;;;;;;;;;4999016;28;20400;-78
2022/09/30 04:47:48;;;;;;;4.28;2.70;;;;;;;;;;4999253;28;20029;-78
2022/09/30 04:50:14;;;;;;;4.00;2.47;;;;;;;;;;4999381;28;20033;-77
2022/09/30 04:52:43;;;;;;;2.95;2.05;;;;;;;;;;4999065;28;20033;-78
2022/09/30 04:55:09;;;;;;;4.05;2.28;;;;;;;;;;5006766;28;20491;-77
2022/09/30 04:57:34;;;;;;;3.53;2.25;;;;;;;;;;5035213;28;20079;-77
2022/09/30 05:00:00;;;;;;;3.95;2.20;;;;;;;;;;5018351;28;20028;-78
2022/09/30 05:02:25;;;;;;;3.17;2.17;;;;;;;;;;5002470;28;20122;-78
2022/09/30 05:04:51;;;;;;;4.03;2.10;;;;;;;;;;5002158;28;20052;-78
2022/09/30 05:07:16;;;;;;;4.05;2.50;;;;;;;;;;5002194;28;20441;-78
2022/09/30 05:09:42;;;;;;;4.07;2.17;;;;;;;;;;5001975;28;20120;-78
2022/09/30 05:12:07;;;;;;;3.83;2.28;;;;;;;;;;5018336;28;20040;-78
2022/09/30 05:14:33;;;;;;;4.50;2.55;;;;;;;;;;5018285;28;20135;-78
2022/09/30 05:16:58;;;;;;;3.17;2.08;;;;;;;;;;5002101;28;20506;-78
2022/09/30 05:19:24;;;;;;;4.50;2.30;;;;;;;;;;5018225;28;20416;-79
2022/09/30 05:21:50;;;;;;;3.80;2.03;;;;;;;;;;4985759;28;20474;-79
2022/09/30 05:24:16;;;;;;;3.78;2.28;;;;;;;;;;5001918;28;20395;-79
2022/09/30 05:26:41;;;;;;;3.65;2.38;;;;;;;;;;4985637;28;20025;-79
2022/09/30 05:29:08;;;;;;;4.20;2.03;;;;;;;;;;5001824;28;20044;-79
2022/09/30 05:31:34;;;;;;;3.55;2.15;;;;;;;;;;5017486;28;20028;-79
2022/09/30 05:34:00;;;;;;;4.72;1.95;;;;;;;;;;4992666;28;20064;-78
2022/09/30 05:36:25;;;;;;;4.38;2.20;;;;;;;;;;5014719;28;20045;-79
2022/09/30 05:38:51;;;;;;;3.75;2.13;;;;;;;;;;4997701;28;20029;-78
2022/09/30 05:41:19;;;;;;;4.22;2.13;;;;;;;;;;4998071;28;20025;-79
2022/09/30 05:43:45;;;;;;;3.67;2.05;;;;;;;;;;4998184;28;20038;-79
2022/09/30 05:46:11;;;;;;;6.07;2.55;;;;;;;;;;4988861;28;20053;-78
2022/09/30 05:48:36;;;;;;;11.90;5.38;;;;;;;;;;4994771;28;20034;-78
2022/09/30 05:51:02;;;;;;;119.32;51.20;;;;;;;;;;4994631;28;20480;-78
2022/09/30 05:53:28;;;;;;;368.17;178.80;;;;;;;;;;4994480;28;20054;-79
2022/09/30 05:55:53;;;;;;;408.45;194.88;;;;;;;;;;4995204;28;20028;-79
2022/09/30 05:58:20;;;;;;;427.25;210.07;;;;;;;;;;5018259;28;20033;-78
2022/09/30 06:00:46;;;;;;;405.25;201.18;;;;;;;;;;5001361;28;20037;-78
2022/09/30 06:03:12;;;;;;;403.08;199.68;;;;;;;;;;5001495;28;20025;-78
2022/09/30 06:05:38;;;;;;;388.27;193.15;;;;;;;;;;5018039;28;20036;-78
2022/09/30 06:08:05;;;;;;;381.48;185.90;;;;;;;;;;5001091;28;20089;-78
2022/09/30 06:10:31;;;;;;;374.02;181.63;;;;;;;;;;5001455;28;20060;-78
2022/09/30 06:12:58;;;;;;;351.08;179.18;;;;;;;;;;5001784;28;20040;-78
2022/09/30 06:15:24;;;;;;;345.10;172.02;;;;;;;;;;5017621;28;20045;-78
2022/09/30 06:17:53;;;;;;;342.83;167.05;;;;;;;;;;5017665;28;20029;-78
2022/09/30 06:20:19;;;;;;;321.27;160.10;;;;;;;;;;5017009;28;20032;-78
2022/09/30 06:22:45;;;;;;;318.42;157.68;;;;;;;;;;5000951;28;20035;-78
2022/09/30 06:25:10;;;;;;;311.85;150.38;;;;;;;;;;5016909;28;20041;-78
2022/09/30 06:27:38;;;;;;;312.17;150.77;;;;;;;;;;5012450;28;20399;-78
2022/09/30 06:30:07;;;;;;;287.33;146.20;;;;;;;;;;4998390;28;20037;-78
2022/09/30 06:32:33;;;;;;;291.27;145.43;;;;;;;;;;4997813;28;20112;-77
2022/09/30 06:34:58;;;;;;;280.02;140.98;;;;;;;;;;4980986;28;20128;-78
2022/09/30 06:37:24;;;;;;;276.70;138.05;;;;;;;;;;4975908;28;20025;-77
2022/09/30 06:39:49;;;;;;;260.17;131.60;;;;;;;;;;4994375;28;20384;-77
2022/09/30 06:42:15;;;;;;;247.23;126.25;;;;;;;;;;5012337;28;20042;-78
2022/09/30 06:44:41;;;;;;;227.38;118.50;;;;;;;;;;5016516;28;20097;-77
2022/09/30 06:47:07;;;;;;;215.75;112.57;;;;;;;;;;5014381;28;20040;-78
2022/09/30 06:49:33;;;;;;;218.75;110.38;;;;;;;;;;5003682;28;20423;-79
2022/09/30 06:51:59;;;;;;;200.88;104.35;;;;;;;;;;5004335;28;20033;-80
2022/09/30 06:54:26;;;;;;;192.38;100.18;;;;;;;;;;5006139;28;20025;-78
2022/09/30 06:56:52;;;;;;;189.45;98.35;;;;;;;;;;5023898;28;20033;-78
2022/09/30 06:59:18;;;;;;;187.35;93.68;;;;;;;;;;5023776;28;20087;-78
2022/09/30 07:01:44;;;;;;;168.25;89.57;;;;;;;;;;4999495;28;20037;-78
2022/09/30 07:04:12;;;;;;;168.57;86.28;;;;;;;;;;5017988;28;20084;-78
2022/09/30 07:06:37;;;;;;;170.10;85.07;;;;;;;;;;5001173;28;20510;-78
2022/09/30 07:09:06;;;;;;;156.57;79.15;;;;;;;;;;5003857;28;20030;-78
2022/09/30 07:11:32;;;;;;;159.43;81.57;;;;;;;;;;5003253;28;20029;-78
2022/09/30 07:13:57;;;;;;;154.88;82.50;;;;;;;;;;5003002;28;20060;-77
2022/09/30 07:16:24;;;;;;;151.35;81.07;;;;;;;;;;5003681;28;20045;-78
2022/09/30 07:18:50;;;;;;;149.73;76.97;;;;;;;;;;4987548;28;20025;-78
2022/09/30 07:21:15;;;;;;;137.15;76.10;;;;;;;;;;4987518;28;20040;-78
2022/09/30 07:23:46;;;;;;;146.68;73.75;;;;;;;;;;4987180;28;20029;-78
2022/09/30 07:26:11;;;;;;;147.10;74.05;;;;;;;;;;5004592;28;20037;-78
2022/09/30 07:28:38;;;;;;;131.63;70.93;;;;;;;;;;5002503;28;20025;-78
2022/09/30 07:31:10;;;;;;;135.15;69.63;;;;;;;;;;5003673;28;20033;-78
2022/09/30 07:33:38;;;;;;;125.78;67.15;;;;;;;;;;5004266;28;20073;-78
2022/09/30 07:36:07;;;;;;;127.72;67.45;;;;;;;;;;4988182;28;20510;-78
2022/09/30 07:38:35;;;;;;;132.57;70.07;;;;;;;;;;4984647;28;20029;-78
2022/09/30 07:41:14;;;;;;;141.60;69.72;;;;;;;;;;4984369;28;20030;-78
2022/09/30 07:43:41;;;;;;;124.03;66.05;;;;;;;;;;4967658;28;20041;-79
2022/09/30 07:46:10;;;;;;;116.85;62.88;;;;;;;;;;4989672;28;20484;-78
2022/09/30 07:48:42;;;;;;;129.18;63.85;;;;;;;;;;5012747;28;20030;-78
2022/09/30 07:51:09;;;;;;;;;;;;;;;;;;5005655;28;20060;-78
2022/09/30 07:53:35;;;;;;;115.70;60.78;;;;;;;;;;5017688;28;19905;-78
2022/09/30 07:56:06;;;;;;;109.28;58.47;;;;;;;;;;5015061;28;20056;-78
2022/09/30 07:58:32;;;;;;;118.25;58.30;;;;;;;;;;5019781;28;20483;-77
2022/09/30 08:00:57;;;;;;;110.80;55.72;;;;;;;;;;5019826;28;20064;-78
2022/09/30 08:03:23;;;;;;;105.47;55.50;;;;;;;;;;5019512;28;20037;-77
2022/09/30 08:05:48;;;;;;;105.32;54.20;;;;;;;;;;5003566;28;20040;-78
2022/09/30 08:08:15;;;;;;;100.07;50.78;;;;;;;;;;5019737;28;20368;-81
2022/09/30 08:10:40;;;;;;;100.47;50.47;;;;;;;;;;5003310;28;20112;-80
2022/09/30 08:13:06;;;;;;;94.93;50.42;;;;;;;;;;5003075;28;20119;-79
2022/09/30 08:15:32;;;;;;;92.63;47.05;;;;;;;;;;5003398;28;20025;-80
2022/09/30 08:17:57;;;;;;;87.68;47.92;;;;;;;;;;4986740;28;20036;-80
2022/09/30 08:20:23;;;;;;;84.00;46.80;;;;;;;;;;5003227;28;20025;-80
2022/09/30 08:22:53;;;;;;;92.70;45.10;;;;;;;;;;5019464;28;20441;-79
2022/09/30 08:25:18;;;;;;;86.85;45.03;;;;;;;;;;5002936;28;20032;-79
2022/09/30 08:27:43;;;;;;;84.20;44.22;;;;;;;;;;5019545;28;20115;-79
2022/09/30 08:30:09;;;;;;;80.68;42.33;;;;;;;;;;5019404;28;20387;-79
2022/09/30 08:32:35;;;;;;;72.53;39.75;;;;;;;;;;5018827;28;20360;-80
2022/09/30 08:35:00;;;;;;;70.32;38.88;;;;;;;;;;5019204;28;20033;-80
2022/09/30 08:37:25;;;;;;;70.22;37.42;;;;;;;;;;5010239;28;20373;-80
2022/09/30 08:39:51;;;;;;;68.35;35.33;;;;;;;;;;5011910;28;20481;-80
2022/09/30 08:42:22;;;;;;;61.58;34.08;;;;;;;;;;5012266;28;20456;-79
2022/09/30 08:44:48;;;;;;;59.55;32.70;;;;;;;;;;5013487;28;20084;-80
2022/09/30 08:47:35;;;;;;;58.55;32.05;;;;;;;;;;4998795;28;20037;-80
2022/09/30 08:50:12;;;;;;;56.60;28.77;;;;;;;;;;5016616;28;20036;-79
2022/09/30 08:52:48;;;;;;;51.97;26.85;;;;;;;;;;5016837;28;20048;-80
2022/09/30 08:55:24;;;;;;;47.30;27.10;;;;;;;;;;5024046;28;20036;-80
2022/09/30 08:57:50;;;;;;;44.70;25.58;;;;;;;;;;5002740;28;20025;-80
2022/09/30 09:00:16;;;;;;;46.17;25.50;;;;;;;;;;5002143;28;20478;-80
2022/09/30 09:02:50;;;;;;;44.15;22.60;;;;;;;;;;5002271;28;20033;-79
2022/09/30 09:05:37;;;;;;;43.35;21.30;;;;;;;;;;5035425;28;20727;-79
2022/09/30 09:08:19;;;;;;;38.83;18.85;;;;;;;;;;5053193;28;20120;-79
2022/09/30 09:10:45;;;;;;;33.57;17.87;;;;;;;;;;5018885;28;20056;-79
2022/09/30 09:13:29;;;;;;;34.97;18.58;;;;;;;;;;5002099;28;20094;-79
2022/09/30 09:16:07;;;;;;;29.50;17.02;;;;;;;;;;5034446;28;20483;-79
2022/09/30 09:18:44;;;;;;;36.40;16.90;;;;;;;;;;5034815;28;20108;-80
2022/09/30 09:21:38;;;;;;;33.22;16.02;;;;;;;;;;5036202;28;20029;-80
2022/09/30 09:24:04;;;;;;;35.38;15.07;;;;;;;;;;5034612;28;20445;-80
2022/09/30 09:26:34;;;;;;;74.60;20.67;;;;;;;;;;5002238;28;20375;-79
2022/09/30 09:29:03;;;;;;;44.60;16.55;;;;;;;;;;4985857;28;20025;-80
2022/09/30 09:31:28;;;;;;;36.20;14.75;;;;;;;;;;5022932;28;20069;-80
2022/09/30 09:33:55;;;;;;;38.80;14.43;;;;;;;;;;4996920;28;20554;-80
2022/09/30 09:36:32;;;;;;;36.90;12.48;;;;;;;;;;4997401;28;20132;-80
2022/09/30 09:39:02;;;;;;;28.67;12.70;;;;;;;;;;5011440;28;20549;-80
2022/09/30 09:41:43;;;;;;;31.40;13.70;;;;;;;;;;4994206;28;20060;-80
2022/09/30 09:44:28;;;;;;;24.92;11.40;;;;;;;;;;4994385;28;20044;-80
2022/09/30 09:47:04;;;;;;;24.90;12.25;;;;;;;;;;5002445;28;20472;-79
2022/09/30 09:49:37;;;;;;;29.42;13.02;;;;;;;;;;4995406;28;20034;-80
2022/09/30 09:52:25;;;;;;;29.65;11.70;;;;;;;;;;4995695;28;20069;-79
2022/09/30 09:54:51;;;;;;;24.80;11.82;;;;;;;;;;5007349;28;20033;-80
2022/09/30 09:57:19;;;;;;;30.65;12.38;;;;;;;;;;5017641;28;20079;-80
2022/09/30 10:03:18;;;;;;;25.33;11.55;;;;;;;;;;5016506;28;20047;-80
2022/09/30 10:05:46;;;;;;;20.88;9.93;;;;;;;;;;5025835;28;20510;-80
2022/09/30 10:08:16;;;;;;;18.92;9.88;;;;;;;;;;5002116;28;20068;-80
2022/09/30 10:10:44;;;;;;;22.63;10.65;;;;;;;;;;5001257;28;20029;-80
2022/09/30 10:13:18;;;;;;;19.77;9.88;;;;;;;;;;5000924;28;20487;-80
2022/09/30 10:15:44;;;;;;;20.05;9.73;;;;;;;;;;5001249;28;20033;-82
2022/09/30 10:18:16;;;;;;;16.70;8.48;;;;;;;;;;5000561;28;20040;-80
2022/09/30 10:20:48;;;;;;;20.30;9.32;;;;;;;;;;5001026;28;20119;-80
2022/09/30 10:23:31;;;;;;;18.83;9.68;;;;;;;;;;5001897;28;20080;-80
2022/09/30 10:26:02;;;;;;;16.50;8.88;;;;;;;;;;5017306;28;20041;-80
2022/09/30 10:28:30;;;;;;;15.85;8.00;;;;;;;;;;5017518;28;20107;-80
2022/09/30 10:31:10;;;;;;;16.77;7.78;;;;;;;;;;5001405;28;20052;-80
2022/09/30 10:33:42;;;;;;;16.40;7.13;;;;;;;;;;5000993;28;20033;-80
2022/09/30 10:36:18;;;;;;;13.52;7.45;;;;;;;;;;5001498;28;20039;-80
2022/09/30 10:38:56;;;;;;;15.48;7.50;;;;;;;;;;4982453;28;20496;-80
2022/09/30 10:41:30;;;;;;;9.98;6.20;;;;;;;;;;4995815;28;20392;-80
2022/09/30 10:44:01;;;;;;;12.68;5.85;;;;;;;;;;4977739;28;20034;-80
2022/09/30 10:46:29;;;;;;;10.82;5.75;;;;;;;;;;4986715;28;20042;-80
2022/09/30 10:48:56;;;;;;;12.90;5.47;;;;;;;;;;4976856;28;20037;-80
2022/09/30 10:51:35;;;;;;;8.05;4.28;;;;;;;;;;4981500;28;20396;-80
2022/09/30 10:54:00;;;;;;;9.40;4.50;;;;;;;;;;5013789;28;20030;-81
2022/09/30 10:56:37;;;;;;;8.02;3.97;;;;;;;;;;4999272;28;20415;-80
2022/09/30 10:59:05;;;;;;;8.05;3.55;;;;;;;;;;5016908;28;20029;-81
2022/09/30 11:01:37;;;;;;;4.63;2.83;;;;;;;;;;5016994;28;20041;-79
2022/09/30 11:04:26;;;;;;;7.45;2.55;;;;;;;;;;5017462;28;20039;-78
2022/09/30 11:06:55;;;;;;;5.20;3.08;;;;;;;;;;5002065;28;20372;-79
2022/09/30 11:09:52;;;;;;;6.70;2.67;;;;;;;;;;5000543;28;20399;-79
2022/09/30 11:12:31;;;;;;;7.05;2.53;;;;;;;;;;5015325;28;20123;-81
2022/09/30 11:15:22;;;;;;;5.47;2.55;;;;;;;;;;5001097;28;20037;-79
2022/09/30 11:17:47;;;;;;;5.10;2.42;;;;;;;;;;5018880;28;20048;-79
2022/09/30 11:20:26;;;;;;;4.88;2.22;;;;;;;;;;5033068;28;20029;-79
2022/09/30 11:23:17;;;;;;;3.90;2.00;;;;;;;;;;5050805;28;20060;-79
2022/09/30 11:26:12;;;;;;;4.90;2.33;;;;;;;;;;5018608;28;20342;-79
2022/09/30 11:29:03;;;;;;;5.28;2.33;;;;;;;;;;5008612;28;20041;-79
2022/09/30 11:31:34;;;;;;;4.03;1.67;;;;;;;;;;5054716;28;20517;-79
2022/09/30 11:34:15;;;;;;;7.63;2.50;;;;;;;;;;5036970;28;20029;-79
2022/09/30 11:36:47;;;;;;;5.80;2.25;;;;;;;;;;5020456;28;20044;-79
2022/09/30 11:39:26;;;;;;;6.15;2.60;;;;;;;;;;4997794;28;20033;-79
2022/09/30 11:42:09;;;;;;;7.97;2.92;;;;;;;;;;4980808;28;20488;-79
2022/09/30 11:44:35;;;;;;;5.80;2.08;;;;;;;;;;4982467;28;20125;-79
2022/09/30 11:47:17;;;;;;;3.85;1.85;;;;;;;;;;4997357;28;20045;-79
2022/09/30 11:50:19;;;;;;;7.80;2.38;;;;;;;;;;5014090;28;20523;-79
2022/09/30 11:53:07;;;;;;;5.18;1.88;;;;;;;;;;5013195;28;20037;-79
2022/09/30 11:55:56;;;;;;;4.78;2.03;;;;;;;;;;5021023;28;20056;-79
2022/09/30 11:58:27;;;;;;;13.27;2.05;;;;;;;;;;5036638;28;20111;-79
2022/09/30 12:00:57;;;;;;;7.00;1.80;;;;;;;;;;5020242;28;20079;-79
2022/09/30 12:03:32;;;;;;;3.90;1.48;;;;;;;;;;5020356;28;20108;-79
2022/09/30 12:06:02;;;;;;;7.85;2.13;;;;;;;;;;5019712;28;20033;-79
2022/09/30 12:08:35;;;;;;;5.28;2.08;;;;;;;;;;5036406;28;20044;-79
2022/09/30 12:11:10;;;;;;;4.82;1.52;;;;;;;;;;5003514;28;20120;-79
2022/09/30 12:13:42;;;;;;;4.25;1.60;;;;;;;;;;5036271;28;20044;-79
2022/09/30 12:16:21;;;;;;;4.65;1.75;;;;;;;;;;5020176;28;20036;-79
2022/09/30 12:19:19;;;;;;;6.05;1.40;;;;;;;;;;5004306;28;20044;-79
2022/09/30 12:22:11;;;;;;;5.50;1.80;;;;;;;;;;5004267;28;20044;-79
2022/09/30 12:24:38;;;;;;;4.22;1.75;;;;;;;;;;5037896;28;20398;-79
2022/09/30 12:27:04;;;;;;;4.40;1.50;;;;;;;;;;5003184;28;20040;-79
2022/09/30 12:32:24;;;;;;;2.95;1.20;;;;;;;;;;5008254;28;20381;-79
2022/09/30 12:35:18;;;;;;;3.70;1.90;;;;;;;;;;5053486;28;20044;-79
2022/09/30 12:38:08;;;;;;;3.83;1.20;;;;;;;;;;5002014;28;20033;-79
2022/09/30 12:40:47;;;;;;;2.92;1.30;;;;;;;;;;5015338;28;20112;-78
2022/09/30 12:43:51;;;;;;;2.33;0.98;;;;;;;;;;5015525;28;20060;-79
2022/09/30 12:46:44;;;;;;;2.28;1.05;;;;;;;;;;4952894;29;20053;-79
2022/09/30 12:49:14;;;;;;;4.13;1.42;;;;;;;;;;5013364;28;20064;-79
2022/09/30 12:51:43;;;;;;;2.78;1.08;;;;;;;;;;5000602;28;20403;-79
2022/09/30 12:54:27;;;;;;;3.47;1.38;;;;;;;;;;4998363;28;20064;-80
2022/09/30 12:56:54;;;;;;;3.95;1.83;;;;;;;;;;4996861;28;20060;-78
2022/09/30 12:59:27;;;;;;;3.33;1.30;;;;;;;;;;5012099;28;20045;-79
2022/09/30 13:01:53;;;;;;;4.13;1.40;;;;;;;;;;5012199;28;20037;-79
2022/09/30 13:04:38;;;;;;;3.45;1.33;;;;;;;;;;5012105;28;20038;-79
2022/09/30 13:07:06;;;;;;;7.72;1.35;;;;;;;;;;5020873;28;20032;-79
2022/09/30 13:09:55;;;;;;;4.65;1.30;;;;;;;;;;5018937;28;20040;-81
2022/09/30 13:12:25;;;;;;;2.72;1.23;;;;;;;;;;5035242;28;20036;-82
2022/09/30 13:15:26;;;;;;;4.93;1.10;;;;;;;;;;5018578;28;20051;-80
2022/09/30 13:17:52;;;;;;;4.32;1.65;;;;;;;;;;5038203;28;20033;-79
2022/09/30 13:20:58;;;;;;;6.07;2.95;;;;;;;;;;5018326;28;20402;-79
2022/09/30 13:23:44;;;;;;;7.63;3.80;;;;;;;;;;5052049;28;20028;-80
2022/09/30 13:26:40;;;;;;;7.15;3.20;;;;;;;;;;5034756;28;20054;-80
2022/09/30 13:29:05;;;;;;;7.20;2.90;;;;;;;;;;5017897;28;20403;-80
2022/09/30 13:31:49;;;;;;;8.07;3.08;;;;;;;;;;5052469;28;20033;-80
2022/09/30 13:34:29;;;;;;;5.15;2.25;;;;;;;;;;5034839;28;20100;-79
2022/09/30 13:36:59;;;;;;;5.97;2.60;;;;;;;;;;5033008;28;20028;-79
2022/09/30 13:39:34;;;;;;;6.93;2.85;;;;;;;;;;4997511;28;20029;-79
2022/09/30 13:41:59;;;;;;;5.57;2.75;;;;;;;;;;5013454;28;20393;-80
2022/09/30 13:45:03;;;;;;;7.20;2.53;;;;;;;;;;5031240;28;20108;-80
2022/09/30 13:47:32;;;;;;;6.38;2.45;;;;;;;;;;5013059;28;20037;-79
2022/09/30 13:50:14;;;;;;;6.07;2.80;;;;;;;;;;4981586;28;20032;-79
2022/09/30 13:52:43;;;;;;;6.65;2.13;;;;;;;;;;5013053;28;20035;-79
2022/09/30 13:55:15;;;;;;;5.47;2.10;;;;;;;;;;5006532;28;20036;-79
2022/09/30 13:57:53;;;;;;;5.93;2.10;;;;;;;;;;5002169;28;20041;-80
2022/09/30 14:00:19;;;;;;;5.40;2.20;;;;;;;;;;5051814;28;20032;-80
2022/09/30 14:03:11;;;;;;;3.95;2.15;;;;;;;;;;5000964;28;20036;-80
2022/09/30 14:05:43;;;;;;;3.97;1.90;;;;;;;;;;5017301;28;20513;-80
2022/09/30 14:08:25;;;;;;;4.50;2.13;;;;;;;;;;5018146;28;20510;-80
2022/09/30 14:11:24;;;;;;;5.33;2.10;;;;;;;;;;5017282;28;20032;-79
2022/09/30 14:13:52;;;;;;;5.47;2.03;;;;;;;;;;5028911;28;20029;-79
2022/09/30 14:16:49;;;;;;;5.13;2.00;;;;;;;;;;5017180;28;20051;-79
2022/09/30 14:19:14;;;;;;;4.43;2.08;;;;;;;;;;5033620;28;20371;-79
2022/09/30 14:21:51;;;;;;;4.47;2.30;;;;;;;;;;5033597;28;20033;-78
2022/09/30 14:24:27;;;;;;;3.92;1.35;;;;;;;;;;5001088;28;20425;-79
2022/09/30 14:27:05;;;;;;;3.53;1.65;;;;;;;;;;5001089;28;20032;-79
2022/09/30 14:29:47;;;;;;;4.22;1.60;;;;;;;;;;5034324;28;20029;-80
2022/09/30 14:32:20;;;;;;;3.33;1.48;;;;;;;;;;5034925;28;20360;-80
2022/09/30 14:34:46;;;;;;;4.25;1.67;;;;;;;;;;5001294;28;20491;-79
2022/09/30 14:37:18;;;;;;;2.95;1.35;;;;;;;;;;5010626;28;20168;-79
2022/09/30 14:39:43;;;;;;;;;;;;;;;;;;4978977;28;20558;-80
2022/09/30 14:42:10;;;;;;;3.40;1.30;;;;;;;;;;4993824;28;19940;-80
2022/09/30 14:44:35;;;;;;;3.13;1.10;;;;;;;;;;4978124;28;20068;-79
2022/09/30 14:47:01;;;;;;;2.78;1.33;;;;;;;;;;4994041;28;20108;-79
2022/09/30 14:49:31;;;;;;;3.75;1.83;;;;;;;;;;4994021;28;20120;-80
2022/09/30 14:51:59;;;;;;;3.15;1.30;;;;;;;;;;5010772;28;20116;-79
2022/09/30 14:54:27;;;;;;;2.88;1.15;;;;;;;;;;5013939;28;20073;-79
2022/09/30 14:56:55;;;;;;;4.22;1.77;;;;;;;;;;5001260;28;20036;-79
2022/09/30 14:59:26;;;;;;;5.10;1.65;;;;;;;;;;5001752;28;20041;-79
2022/09/30 15:02:14;;;;;;;3.40;1.52;;;;;;;;;;5017398;28;20044;-79
2022/09/30 15:04:43;;;;;;;3.70;1.67;;;;;;;;;;5054653;28;20032;-79
2022/09/30 15:07:09;;;;;;;2.67;1.42;;;;;;;;;;5021474;28;20463;-79
2022/09/30 15:09:36;;;;;;;3.20;1.80;;;;;;;;;;5020741;28;20043;-79
2022/09/30 15:12:12;;;;;;;3.38;1.52;;;;;;;;;;5021111;28;20041;-79